sensor_id;sensor_type;location;lat;lon;timestamp;P1;durP1;ratioP1;P2;durP2;ratioP2
29500;SDS011;16450;50.288;10.966;2023-02-10T00:00:37;25.77;;;13.47;;
29500;SDS011;16450;50.288;10.966;2023-02-10T00:03:39;28.57;;;14.33;;
29500;SDS011;16450;50.288;10.966;2023-02-10T00:06:41;30.07;;;14.87;;
29500;SDS011;16450;50.288;10.966;2023-02-10T00:09:43;31.10;;;16.27;;
29500;SDS011;16450;50.288;10.966;2023-02-10T00:12:45;32.23;;;15.80;;
29500;SDS011;16450;50.288;10.966;2023-02-10T00:15:47;32.37;;;17.23;;
29500;SDS011;16450;50.288;10.966;2023-02-10T00:18:49;31.40;;;14.77;;
29500;SDS011;16450;50.288;10.966;2023-02-10T00:21:51;27.80;;;14.40;;
29500;SDS011;16450;50.288;10.966;2023-02-10T00:24:53;28.97;;;14.50;;
29500;SDS011;16450;50.288;10.966;2023-02-10T00:27:55;29.23;;;14.33;;
29500;SDS011;16450;50.288;10.966;2023-02-10T00:30:57;30.03;;;14.40;;
29500;SDS011;16450;50.288;10.966;2023-02-10T00:33:59;26.50;;;14.10;;
29500;SDS011;16450;50.288;10.966;2023-02-10T00:37:01;29.50;;;14.00;;
29500;SDS011;16450;50.288;10.966;2023-02-10T00:40:03;30.90;;;14.53;;
29500;SDS011;16450;50.288;10.966;2023-02-10T00:43:05;27.27;;;14.43;;
29500;SDS011;16450;50.288;10.966;2023-02-10T00:46:06;31.67;;;13.47;;
29500;SDS011;16450;50.288;10.966;2023-02-10T00:49:09;27.40;;;14.30;;
29500;SDS011;16450;50.288;10.966;2023-02-10T00:52:12;26.03;;;14.17;;
29500;SDS011;16450;50.288;10.966;2023-02-10T00:55:14;29.33;;;14.93;;
29500;SDS011;16450;50.288;10.966;2023-02-10T00:58:16;31.23;;;14.90;;
29500;SDS011;16450;50.288;10.966;2023-02-10T01:01:18;26.53;;;13.83;;
29500;SDS011;16450;50.288;10.966;2023-02-10T01:04:21;28.73;;;14.20;;
29500;SDS011;16450;50.288;10.966;2023-02-10T01:07:23;27.47;;;14.47;;
29500;SDS011;16450;50.288;10.966;2023-02-10T01:10:24;29.37;;;13.97;;
29500;SDS011;16450;50.288;10.966;2023-02-10T01:13:26;25.83;;;13.83;;
29500;SDS011;16450;50.288;10.966;2023-02-10T01:16:29;28.80;;;13.80;;
29500;SDS011;16450;50.288;10.966;2023-02-10T01:19:31;27.57;;;13.57;;
29500;SDS011;16450;50.288;10.966;2023-02-10T01:22:33;32.03;;;14.73;;
29500;SDS011;16450;50.288;10.966;2023-02-10T01:25:36;32.80;;;14.70;;
29500;SDS011;16450;50.288;10.966;2023-02-10T01:28:39;29.77;;;14.83;;
29500;SDS011;16450;50.288;10.966;2023-02-10T01:31:41;27.07;;;13.93;;
29500;SDS011;16450;50.288;10.966;2023-02-10T01:34:43;28.50;;;13.83;;
29500;SDS011;16450;50.288;10.966;2023-02-10T01:37:45;28.33;;;13.93;;
29500;SDS011;16450;50.288;10.966;2023-02-10T01:40:47;27.97;;;14.27;;
29500;SDS011;16450;50.288;10.966;2023-02-10T01:43:54;31.30;;;14.03;;
29500;SDS011;16450;50.288;10.966;2023-02-10T01:47:00;26.80;;;13.67;;
29500;SDS011;16450;50.288;10.966;2023-02-10T01:50:02;26.37;;;13.80;;
29500;SDS011;16450;50.288;10.966;2023-02-10T01:53:04;24.47;;;13.60;;
29500;SDS011;16450;50.288;10.966;2023-02-10T01:56:07;31.53;;;14.00;;
29500;SDS011;16450;50.288;10.966;2023-02-10T01:59:09;27.67;;;13.93;;
29500;SDS011;16450;50.288;10.966;2023-02-10T02:02:11;28.73;;;14.30;;
29500;SDS011;16450;50.288;10.966;2023-02-10T02:05:28;28.33;;;13.77;;
29500;SDS011;16450;50.288;10.966;2023-02-10T02:08:31;27.83;;;13.97;;
29500;SDS011;16450;50.288;10.966;2023-02-10T02:14:54;28.13;;;13.90;;
29500;SDS011;16450;50.288;10.966;2023-02-10T02:32:19;26.70;;;13.07;;
29500;SDS011;16450;50.288;10.966;2023-02-10T02:35:31;26.80;;;13.40;;
29500;SDS011;16450;50.288;10.966;2023-02-10T02:38:40;28.73;;;14.90;;
29500;SDS011;16450;50.288;10.966;2023-02-10T02:41:42;33.20;;;14.50;;
29500;SDS011;16450;50.288;10.966;2023-02-10T02:44:45;30.47;;;14.27;;
29500;SDS011;16450;50.288;10.966;2023-02-10T02:51:13;29.43;;;13.43;;
29500;SDS011;16450;50.288;10.966;2023-02-10T02:54:54;30.07;;;14.37;;
29500;SDS011;16450;50.288;10.966;2023-02-10T02:58:11;29.83;;;13.93;;
29500;SDS011;16450;50.288;10.966;2023-02-10T03:01:26;27.80;;;14.67;;
29500;SDS011;16450;50.288;10.966;2023-02-10T03:04:38;28.37;;;14.60;;
29500;SDS011;16450;50.288;10.966;2023-02-10T03:07:40;30.43;;;14.70;;
29500;SDS011;16450;50.288;10.966;2023-02-10T03:10:42;30.30;;;14.20;;
29500;SDS011;16450;50.288;10.966;2023-02-10T03:13:44;30.27;;;14.90;;
29500;SDS011;16450;50.288;10.966;2023-02-10T03:16:46;30.33;;;14.87;;
29500;SDS011;16450;50.288;10.966;2023-02-10T03:19:48;32.10;;;14.57;;
29500;SDS011;16450;50.288;10.966;2023-02-10T03:22:50;33.13;;;14.23;;
29500;SDS011;16450;50.288;10.966;2023-02-10T03:25:52;30.93;;;14.87;;
29500;SDS011;16450;50.288;10.966;2023-02-10T03:28:54;29.53;;;14.07;;
29500;SDS011;16450;50.288;10.966;2023-02-10T03:31:56;31.80;;;14.93;;
29500;SDS011;16450;50.288;10.966;2023-02-10T03:34:58;29.57;;;14.63;;
29500;SDS011;16450;50.288;10.966;2023-02-10T03:38:00;32.63;;;14.83;;
29500;SDS011;16450;50.288;10.966;2023-02-10T03:41:02;33.90;;;15.83;;
29500;SDS011;16450;50.288;10.966;2023-02-10T03:44:04;28.63;;;14.00;;
29500;SDS011;16450;50.288;10.966;2023-02-10T03:47:07;32.53;;;14.83;;
29500;SDS011;16450;50.288;10.966;2023-02-10T03:50:10;27.80;;;13.63;;
29500;SDS011;16450;50.288;10.966;2023-02-10T03:53:11;34.23;;;15.87;;
29500;SDS011;16450;50.288;10.966;2023-02-10T03:56:13;30.43;;;14.27;;
29500;SDS011;16450;50.288;10.966;2023-02-10T03:59:15;30.77;;;14.77;;
29500;SDS011;16450;50.288;10.966;2023-02-10T04:02:17;31.07;;;15.23;;
29500;SDS011;16450;50.288;10.966;2023-02-10T04:05:19;31.40;;;15.07;;
29500;SDS011;16450;50.288;10.966;2023-02-10T04:08:21;33.00;;;15.83;;
29500;SDS011;16450;50.288;10.966;2023-02-10T04:11:23;31.23;;;15.37;;
29500;SDS011;16450;50.288;10.966;2023-02-10T04:14:25;29.43;;;14.23;;
29500;SDS011;16450;50.288;10.966;2023-02-10T04:17:28;29.63;;;14.53;;
29500;SDS011;16450;50.288;10.966;2023-02-10T04:20:29;30.60;;;14.80;;
29500;SDS011;16450;50.288;10.966;2023-02-10T04:23:32;33.00;;;15.53;;
29500;SDS011;16450;50.288;10.966;2023-02-10T04:26:35;31.57;;;15.70;;
29500;SDS011;16450;50.288;10.966;2023-02-10T04:29:37;34.40;;;15.63;;
29500;SDS011;16450;50.288;10.966;2023-02-10T04:32:41;34.23;;;16.80;;
29500;SDS011;16450;50.288;10.966;2023-02-10T04:35:43;31.30;;;15.63;;
29500;SDS011;16450;50.288;10.966;2023-02-10T04:38:45;32.47;;;15.43;;
29500;SDS011;16450;50.288;10.966;2023-02-10T04:41:47;34.60;;;15.80;;
29500;SDS011;16450;50.288;10.966;2023-02-10T04:44:49;34.53;;;16.50;;
29500;SDS011;16450;50.288;10.966;2023-02-10T04:47:51;32.53;;;16.33;;
29500;SDS011;16450;50.288;10.966;2023-02-10T04:50:52;32.77;;;15.87;;
29500;SDS011;16450;50.288;10.966;2023-02-10T04:53:55;31.23;;;14.97;;
29500;SDS011;16450;50.288;10.966;2023-02-10T04:56:56;33.37;;;16.37;;
29500;SDS011;16450;50.288;10.966;2023-02-10T04:59:58;32.23;;;15.43;;
29500;SDS011;16450;50.288;10.966;2023-02-10T05:03:00;35.40;;;15.87;;
29500;SDS011;16450;50.288;10.966;2023-02-10T05:06:20;36.47;;;17.07;;
29500;SDS011;16450;50.288;10.966;2023-02-10T05:09:22;35.53;;;17.20;;
29500;SDS011;16450;50.288;10.966;2023-02-10T05:12:24;37.50;;;17.83;;
29500;SDS011;16450;50.288;10.966;2023-02-10T05:15:26;32.60;;;16.40;;
29500;SDS011;16450;50.288;10.966;2023-02-10T05:18:29;38.87;;;17.33;;
29500;SDS011;16450;50.288;10.966;2023-02-10T05:21:31;34.87;;;17.10;;
29500;SDS011;16450;50.288;10.966;2023-02-10T05:24:33;34.67;;;16.67;;
29500;SDS011;16450;50.288;10.966;2023-02-10T05:27:35;41.20;;;18.50;;
29500;SDS011;16450;50.288;10.966;2023-02-10T05:30:37;44.87;;;19.33;;
29500;SDS011;16450;50.288;10.966;2023-02-10T05:33:39;36.10;;;17.40;;
29500;SDS011;16450;50.288;10.966;2023-02-10T05:36:41;35.70;;;17.87;;
29500;SDS011;16450;50.288;10.966;2023-02-10T05:39:44;33.93;;;17.17;;
29500;SDS011;16450;50.288;10.966;2023-02-10T05:42:46;33.23;;;17.00;;
29500;SDS011;16450;50.288;10.966;2023-02-10T05:45:48;34.70;;;17.73;;
29500;SDS011;16450;50.288;10.966;2023-02-10T05:48:50;38.00;;;19.37;;
29500;SDS011;16450;50.288;10.966;2023-02-10T05:51:52;38.80;;;19.43;;
29500;SDS011;16450;50.288;10.966;2023-02-10T05:54:54;37.30;;;18.53;;
29500;SDS011;16450;50.288;10.966;2023-02-10T05:57:56;35.60;;;18.53;;
29500;SDS011;16450;50.288;10.966;2023-02-10T06:00:58;36.90;;;17.83;;
29500;SDS011;16450;50.288;10.966;2023-02-10T06:04:01;35.60;;;18.43;;
29500;SDS011;16450;50.288;10.966;2023-02-10T06:07:02;34.27;;;17.50;;
29500;SDS011;16450;50.288;10.966;2023-02-10T06:10:04;35.60;;;17.63;;
29500;SDS011;16450;50.288;10.966;2023-02-10T06:13:07;35.30;;;18.50;;
29500;SDS011;16450;50.288;10.966;2023-02-10T06:16:09;35.10;;;19.13;;
29500;SDS011;16450;50.288;10.966;2023-02-10T06:19:13;38.80;;;18.23;;
29500;SDS011;16450;50.288;10.966;2023-02-10T06:22:14;38.43;;;19.27;;
29500;SDS011;16450;50.288;10.966;2023-02-10T06:25:16;38.07;;;19.20;;
29500;SDS011;16450;50.288;10.966;2023-02-10T06:28:18;37.27;;;19.10;;
29500;SDS011;16450;50.288;10.966;2023-02-10T06:31:20;38.00;;;19.63;;
29500;SDS011;16450;50.288;10.966;2023-02-10T06:34:22;38.07;;;19.87;;
29500;SDS011;16450;50.288;10.966;2023-02-10T06:37:24;37.80;;;19.30;;
29500;SDS011;16450;50.288;10.966;2023-02-10T06:40:26;42.03;;;20.13;;
29500;SDS011;16450;50.288;10.966;2023-02-10T06:43:27;36.47;;;19.03;;
29500;SDS011;16450;50.288;10.966;2023-02-10T06:46:29;40.77;;;20.90;;
29500;SDS011;16450;50.288;10.966;2023-02-10T06:49:31;38.67;;;20.43;;
29500;SDS011;16450;50.288;10.966;2023-02-10T06:52:33;39.03;;;18.83;;
29500;SDS011;16450;50.288;10.966;2023-02-10T06:55:38;41.30;;;20.87;;
29500;SDS011;16450;50.288;10.966;2023-02-10T06:58:40;39.60;;;21.07;;
29500;SDS011;16450;50.288;10.966;2023-02-10T07:01:42;37.57;;;19.83;;
29500;SDS011;16450;50.288;10.966;2023-02-10T07:04:44;41.40;;;21.43;;
29500;SDS011;16450;50.288;10.966;2023-02-10T07:07:45;38.97;;;20.83;;
29500;SDS011;16450;50.288;10.966;2023-02-10T07:10:47;41.73;;;21.77;;
29500;SDS011;16450;50.288;10.966;2023-02-10T07:13:50;41.80;;;22.03;;
29500;SDS011;16450;50.288;10.966;2023-02-10T07:16:51;40.47;;;21.07;;
29500;SDS011;16450;50.288;10.966;2023-02-10T07:19:53;40.10;;;20.90;;
29500;SDS011;16450;50.288;10.966;2023-02-10T07:22:55;47.33;;;22.77;;
29500;SDS011;16450;50.288;10.966;2023-02-10T07:25:57;42.17;;;23.20;;
29500;SDS011;16450;50.288;10.966;2023-02-10T07:28:59;44.47;;;22.73;;
29500;SDS011;16450;50.288;10.966;2023-02-10T07:32:00;42.23;;;23.37;;
29500;SDS011;16450;50.288;10.966;2023-02-10T07:35:04;47.53;;;24.10;;
29500;SDS011;16450;50.288;10.966;2023-02-10T07:38:06;45.93;;;24.07;;
29500;SDS011;16450;50.288;10.966;2023-02-10T07:41:07;45.37;;;24.77;;
29500;SDS011;16450;50.288;10.966;2023-02-10T07:44:10;45.37;;;24.63;;
29500;SDS011;16450;50.288;10.966;2023-02-10T07:47:12;48.27;;;26.20;;
29500;SDS011;16450;50.288;10.966;2023-02-10T07:50:13;42.30;;;22.57;;
29500;SDS011;16450;50.288;10.966;2023-02-10T07:53:15;46.47;;;25.13;;
29500;SDS011;16450;50.288;10.966;2023-02-10T07:56:17;48.40;;;25.60;;
29500;SDS011;16450;50.288;10.966;2023-02-10T07:59:19;46.80;;;25.53;;
29500;SDS011;16450;50.288;10.966;2023-02-10T08:02:21;47.90;;;25.47;;
29500;SDS011;16450;50.288;10.966;2023-02-10T08:05:22;53.87;;;27.33;;
29500;SDS011;16450;50.288;10.966;2023-02-10T08:08:24;57.40;;;28.80;;
29500;SDS011;16450;50.288;10.966;2023-02-10T08:11:26;48.83;;;27.63;;
29500;SDS011;16450;50.288;10.966;2023-02-10T08:14:28;48.97;;;27.17;;
29500;SDS011;16450;50.288;10.966;2023-02-10T08:17:30;53.37;;;28.33;;
29500;SDS011;16450;50.288;10.966;2023-02-10T08:20:32;52.83;;;27.93;;
29500;SDS011;16450;50.288;10.966;2023-02-10T08:23:34;52.93;;;28.57;;
29500;SDS011;16450;50.288;10.966;2023-02-10T08:26:38;49.47;;;27.03;;
29500;SDS011;16450;50.288;10.966;2023-02-10T08:29:40;50.30;;;27.83;;
29500;SDS011;16450;50.288;10.966;2023-02-10T08:32:42;53.77;;;27.13;;
29500;SDS011;16450;50.288;10.966;2023-02-10T08:35:44;50.83;;;28.20;;
29500;SDS011;16450;50.288;10.966;2023-02-10T08:38:47;51.03;;;28.70;;
29500;SDS011;16450;50.288;10.966;2023-02-10T08:41:49;52.23;;;29.20;;
29500;SDS011;16450;50.288;10.966;2023-02-10T08:44:51;52.03;;;28.43;;
29500;SDS011;16450;50.288;10.966;2023-02-10T08:47:53;48.30;;;26.73;;
29500;SDS011;16450;50.288;10.966;2023-02-10T08:50:55;52.70;;;29.07;;
29500;SDS011;16450;50.288;10.966;2023-02-10T08:53:57;54.17;;;28.33;;
29500;SDS011;16450;50.288;10.966;2023-02-10T08:57:01;51.13;;;28.17;;
29500;SDS011;16450;50.288;10.966;2023-02-10T09:00:04;50.07;;;27.23;;
29500;SDS011;16450;50.288;10.966;2023-02-10T09:03:07;47.70;;;27.37;;
29500;SDS011;16450;50.288;10.966;2023-02-10T09:06:16;50.13;;;27.47;;
29500;SDS011;16450;50.288;10.966;2023-02-10T09:09:22;51.53;;;28.83;;
29500;SDS011;16450;50.288;10.966;2023-02-10T09:12:25;48.90;;;27.60;;
29500;SDS011;16450;50.288;10.966;2023-02-10T09:15:27;53.43;;;28.57;;
29500;SDS011;16450;50.288;10.966;2023-02-10T09:18:29;48.30;;;28.40;;
29500;SDS011;16450;50.288;10.966;2023-02-10T09:21:31;57.00;;;31.43;;
29500;SDS011;16450;50.288;10.966;2023-02-10T09:24:47;56.77;;;29.80;;
29500;SDS011;16450;50.288;10.966;2023-02-10T09:27:53;47.33;;;26.97;;
29500;SDS011;16450;50.288;10.966;2023-02-10T09:30:58;49.90;;;27.00;;
29500;SDS011;16450;50.288;10.966;2023-02-10T09:34:00;54.27;;;30.33;;
29500;SDS011;16450;50.288;10.966;2023-02-10T09:37:03;57.67;;;31.20;;
29500;SDS011;16450;50.288;10.966;2023-02-10T09:40:05;54.63;;;30.37;;
29500;SDS011;16450;50.288;10.966;2023-02-10T09:46:36;56.97;;;31.90;;
29500;SDS011;16450;50.288;10.966;2023-02-10T09:50:05;58.63;;;31.43;;
29500;SDS011;16450;50.288;10.966;2023-02-10T09:53:29;53.43;;;31.30;;
29500;SDS011;16450;50.288;10.966;2023-02-10T09:56:32;55.90;;;31.07;;
29500;SDS011;16450;50.288;10.966;2023-02-10T09:59:34;60.63;;;34.03;;
29500;SDS011;16450;50.288;10.966;2023-02-10T10:03:12;60.67;;;34.57;;
29500;SDS011;16450;50.288;10.966;2023-02-10T10:06:27;63.67;;;35.57;;
29500;SDS011;16450;50.288;10.966;2023-02-10T10:12:43;66.23;;;35.47;;
29500;SDS011;16450;50.288;10.966;2023-02-10T10:15:48;62.40;;;35.17;;
29500;SDS011;16450;50.288;10.966;2023-02-10T10:35:38;63.07;;;33.40;;
29500;SDS011;16450;50.288;10.966;2023-02-10T10:38:43;61.67;;;32.97;;
29500;SDS011;16450;50.288;10.966;2023-02-10T10:41:50;62.90;;;34.60;;
29500;SDS011;16450;50.288;10.966;2023-02-10T10:44:57;58.70;;;34.30;;
29500;SDS011;16450;50.288;10.966;2023-02-10T10:48:09;61.57;;;34.03;;
29500;SDS011;16450;50.288;10.966;2023-02-10T10:51:17;58.87;;;34.20;;
29500;SDS011;16450;50.288;10.966;2023-02-10T10:54:21;65.93;;;36.10;;
29500;SDS011;16450;50.288;10.966;2023-02-10T10:57:26;68.67;;;36.43;;
29500;SDS011;16450;50.288;10.966;2023-02-10T11:00:30;63.17;;;35.57;;
29500;SDS011;16450;50.288;10.966;2023-02-10T11:03:32;61.87;;;34.67;;
29500;SDS011;16450;50.288;10.966;2023-02-10T11:06:35;62.23;;;34.87;;
29500;SDS011;16450;50.288;10.966;2023-02-10T11:09:39;58.83;;;34.73;;
29500;SDS011;16450;50.288;10.966;2023-02-10T11:12:44;61.77;;;34.63;;
29500;SDS011;16450;50.288;10.966;2023-02-10T11:15:47;63.70;;;35.33;;
29500;SDS011;16450;50.288;10.966;2023-02-10T11:18:53;66.33;;;34.63;;
29500;SDS011;16450;50.288;10.966;2023-02-10T11:22:01;64.93;;;34.67;;
29500;SDS011;16450;50.288;10.966;2023-02-10T11:25:05;65.27;;;36.13;;
29500;SDS011;16450;50.288;10.966;2023-02-10T11:28:27;62.77;;;35.73;;
29500;SDS011;16450;50.288;10.966;2023-02-10T11:31:31;63.20;;;36.70;;
29500;SDS011;16450;50.288;10.966;2023-02-10T11:34:44;63.43;;;37.03;;
29500;SDS011;16450;50.288;10.966;2023-02-10T11:38:03;65.20;;;35.27;;
29500;SDS011;16450;50.288;10.966;2023-02-10T11:41:08;61.17;;;35.00;;
29500;SDS011;16450;50.288;10.966;2023-02-10T11:44:22;67.23;;;35.93;;
29500;SDS011;16450;50.288;10.966;2023-02-10T11:47:30;66.17;;;34.87;;
29500;SDS011;16450;50.288;10.966;2023-02-10T11:50:34;68.30;;;37.10;;
29500;SDS011;16450;50.288;10.966;2023-02-10T11:53:36;68.07;;;37.63;;
29500;SDS011;16450;50.288;10.966;2023-02-10T12:00:26;64.20;;;35.40;;
29500;SDS011;16450;50.288;10.966;2023-02-10T12:07:10;63.10;;;35.27;;
29500;SDS011;16450;50.288;10.966;2023-02-10T12:13:50;63.43;;;36.23;;
29500;SDS011;16450;50.288;10.966;2023-02-10T12:20:26;66.33;;;36.03;;
29500;SDS011;16450;50.288;10.966;2023-02-10T12:26:54;66.53;;;36.13;;
29500;SDS011;16450;50.288;10.966;2023-02-10T12:33:38;64.00;;;35.63;;
29500;SDS011;16450;50.288;10.966;2023-02-10T12:46:25;65.30;;;36.50;;
29500;SDS011;16450;50.288;10.966;2023-02-10T12:52:45;65.43;;;36.63;;
29500;SDS011;16450;50.288;10.966;2023-02-10T12:56:05;66.30;;;36.87;;
29500;SDS011;16450;50.288;10.966;2023-02-10T12:59:17;64.40;;;37.50;;
29500;SDS011;16450;50.288;10.966;2023-02-10T13:02:29;61.47;;;35.23;;
29500;SDS011;16450;50.288;10.966;2023-02-10T13:05:38;63.93;;;36.97;;
29500;SDS011;16450;50.288;10.966;2023-02-10T13:08:51;65.70;;;36.43;;
29500;SDS011;16450;50.288;10.966;2023-02-10T13:15:16;67.87;;;35.90;;
29500;SDS011;16450;50.288;10.966;2023-02-10T13:18:26;67.83;;;36.73;;
29500;SDS011;16450;50.288;10.966;2023-02-10T13:25:36;67.10;;;37.60;;
29500;SDS011;16450;50.288;10.966;2023-02-10T13:28:27;67.53;;;38.27;;
29500;SDS011;16450;50.288;10.966;2023-02-10T13:35:00;68.97;;;38.83;;
29500;SDS011;16450;50.288;10.966;2023-02-10T13:38:06;68.23;;;37.87;;
29500;SDS011;16450;50.288;10.966;2023-02-10T13:41:24;72.83;;;38.43;;
29500;SDS011;16450;50.288;10.966;2023-02-10T13:44:42;68.20;;;36.97;;
29500;SDS011;16450;50.288;10.966;2023-02-10T13:50:47;73.20;;;38.30;;
29500;SDS011;16450;50.288;10.966;2023-02-10T13:53:53;72.80;;;39.00;;
29500;SDS011;16450;50.288;10.966;2023-02-10T13:56:56;77.37;;;39.27;;
29500;SDS011;16450;50.288;10.966;2023-02-10T14:00:12;76.27;;;41.27;;
29500;SDS011;16450;50.288;10.966;2023-02-10T14:06:18;71.87;;;38.20;;
29500;SDS011;16450;50.288;10.966;2023-02-10T14:09:21;75.07;;;40.77;;
29500;SDS011;16450;50.288;10.966;2023-02-10T14:12:35;72.03;;;37.80;;
29500;SDS011;16450;50.288;10.966;2023-02-10T14:15:38;69.47;;;35.70;;
29500;SDS011;16450;50.288;10.966;2023-02-10T14:18:43;75.93;;;36.93;;
29500;SDS011;16450;50.288;10.966;2023-02-10T14:21:47;75.00;;;37.33;;
29500;SDS011;16450;50.288;10.966;2023-02-10T14:24:50;75.60;;;36.83;;
29500;SDS011;16450;50.288;10.966;2023-02-10T14:27:55;69.33;;;37.03;;
29500;SDS011;16450;50.288;10.966;2023-02-10T14:30:59;71.73;;;36.53;;
29500;SDS011;16450;50.288;10.966;2023-02-10T14:34:27;70.90;;;36.97;;
29500;SDS011;16450;50.288;10.966;2023-02-10T14:37:31;73.70;;;37.33;;
29500;SDS011;16450;50.288;10.966;2023-02-10T14:40:33;69.07;;;36.33;;
29500;SDS011;16450;50.288;10.966;2023-02-10T14:43:35;68.60;;;37.10;;
29500;SDS011;16450;50.288;10.966;2023-02-10T14:46:38;71.30;;;36.57;;
29500;SDS011;16450;50.288;10.966;2023-02-10T14:49:40;69.83;;;35.33;;
29500;SDS011;16450;50.288;10.966;2023-02-10T14:52:46;66.37;;;35.97;;
29500;SDS011;16450;50.288;10.966;2023-02-10T14:55:59;67.97;;;36.57;;
29500;SDS011;16450;50.288;10.966;2023-02-10T14:59:02;68.30;;;36.87;;
29500;SDS011;16450;50.288;10.966;2023-02-10T15:02:05;73.53;;;37.93;;
29500;SDS011;16450;50.288;10.966;2023-02-10T15:05:18;71.20;;;36.90;;
29500;SDS011;16450;50.288;10.966;2023-02-10T15:08:23;71.47;;;36.97;;
29500;SDS011;16450;50.288;10.966;2023-02-10T15:11:42;71.77;;;37.03;;
29500;SDS011;16450;50.288;10.966;2023-02-10T15:15:09;70.37;;;36.27;;
29500;SDS011;16450;50.288;10.966;2023-02-10T15:18:35;67.93;;;36.23;;
29500;SDS011;16450;50.288;10.966;2023-02-10T15:21:41;70.47;;;36.33;;
29500;SDS011;16450;50.288;10.966;2023-02-10T15:24:43;70.87;;;35.67;;
29500;SDS011;16450;50.288;10.966;2023-02-10T15:27:45;76.43;;;39.27;;
29500;SDS011;16450;50.288;10.966;2023-02-10T15:33:58;71.93;;;37.13;;
29500;SDS011;16450;50.288;10.966;2023-02-10T15:37:03;74.27;;;37.27;;
29500;SDS011;16450;50.288;10.966;2023-02-10T15:40:19;69.07;;;36.20;;
29500;SDS011;16450;50.288;10.966;2023-02-10T15:43:30;74.70;;;37.53;;
29500;SDS011;16450;50.288;10.966;2023-02-10T15:46:32;74.60;;;37.30;;
29500;SDS011;16450;50.288;10.966;2023-02-10T15:49:34;75.03;;;38.27;;
29500;SDS011;16450;50.288;10.966;2023-02-10T15:52:43;79.17;;;41.33;;
29500;SDS011;16450;50.288;10.966;2023-02-10T15:56:00;77.73;;;39.90;;
29500;SDS011;16450;50.288;10.966;2023-02-10T15:59:02;77.93;;;39.97;;
29500;SDS011;16450;50.288;10.966;2023-02-10T16:02:05;75.73;;;39.07;;
29500;SDS011;16450;50.288;10.966;2023-02-10T16:05:11;75.33;;;38.80;;
29500;SDS011;16450;50.288;10.966;2023-02-10T16:08:16;92.20;;;47.17;;
29500;SDS011;16450;50.288;10.966;2023-02-10T16:11:22;78.83;;;41.77;;
29500;SDS011;16450;50.288;10.966;2023-02-10T16:14:25;80.53;;;40.67;;
29500;SDS011;16450;50.288;10.966;2023-02-10T16:17:37;75.90;;;40.50;;
29500;SDS011;16450;50.288;10.966;2023-02-10T16:20:44;75.63;;;40.43;;
29500;SDS011;16450;50.288;10.966;2023-02-10T16:23:46;76.13;;;40.80;;
29500;SDS011;16450;50.288;10.966;2023-02-10T16:26:49;77.80;;;39.93;;
29500;SDS011;16450;50.288;10.966;2023-02-10T16:29:51;78.90;;;43.43;;
29500;SDS011;16450;50.288;10.966;2023-02-10T16:32:53;87.93;;;43.90;;
29500;SDS011;16450;50.288;10.966;2023-02-10T16:35:56;82.60;;;43.13;;
29500;SDS011;16450;50.288;10.966;2023-02-10T16:38:58;76.40;;;41.27;;
29500;SDS011;16450;50.288;10.966;2023-02-10T16:42:03;74.93;;;40.43;;
29500;SDS011;16450;50.288;10.966;2023-02-10T16:45:05;79.20;;;40.70;;
29500;SDS011;16450;50.288;10.966;2023-02-10T16:48:08;77.53;;;40.80;;
29500;SDS011;16450;50.288;10.966;2023-02-10T16:51:13;79.97;;;41.70;;
29500;SDS011;16450;50.288;10.966;2023-02-10T16:54:15;78.73;;;39.40;;
29500;SDS011;16450;50.288;10.966;2023-02-10T16:57:17;73.77;;;40.30;;
29500;SDS011;16450;50.288;10.966;2023-02-10T17:00:20;73.00;;;41.80;;
29500;SDS011;16450;50.288;10.966;2023-02-10T17:03:23;81.90;;;43.53;;
29500;SDS011;16450;50.288;10.966;2023-02-10T17:06:26;78.43;;;41.80;;
29500;SDS011;16450;50.288;10.966;2023-02-10T17:09:30;78.37;;;43.07;;
29500;SDS011;16450;50.288;10.966;2023-02-10T17:12:33;78.33;;;42.40;;
29500;SDS011;16450;50.288;10.966;2023-02-10T17:15:35;88.90;;;46.77;;
29500;SDS011;16450;50.288;10.966;2023-02-10T17:18:37;78.37;;;42.50;;
29500;SDS011;16450;50.288;10.966;2023-02-10T17:21:39;74.70;;;42.23;;
29500;SDS011;16450;50.288;10.966;2023-02-10T17:24:41;74.30;;;42.27;;
29500;SDS011;16450;50.288;10.966;2023-02-10T17:27:43;74.07;;;41.43;;
29500;SDS011;16450;50.288;10.966;2023-02-10T17:30:44;72.43;;;40.27;;
29500;SDS011;16450;50.288;10.966;2023-02-10T17:33:47;71.33;;;39.27;;
29500;SDS011;16450;50.288;10.966;2023-02-10T17:36:51;78.83;;;40.67;;
29500;SDS011;16450;50.288;10.966;2023-02-10T17:39:53;71.63;;;38.67;;
29500;SDS011;16450;50.288;10.966;2023-02-10T17:43:11;71.10;;;39.00;;
29500;SDS011;16450;50.288;10.966;2023-02-10T17:46:13;68.80;;;37.83;;
29500;SDS011;16450;50.288;10.966;2023-02-10T17:49:15;82.40;;;44.13;;
29500;SDS011;16450;50.288;10.966;2023-02-10T17:52:17;75.23;;;40.93;;
29500;SDS011;16450;50.288;10.966;2023-02-10T17:55:19;72.50;;;42.27;;
29500;SDS011;16450;50.288;10.966;2023-02-10T17:58:23;70.57;;;39.70;;
29500;SDS011;16450;50.288;10.966;2023-02-10T18:01:25;68.80;;;38.87;;
29500;SDS011;16450;50.288;10.966;2023-02-10T18:04:29;76.00;;;39.97;;
29500;SDS011;16450;50.288;10.966;2023-02-10T18:07:31;68.80;;;37.70;;
29500;SDS011;16450;50.288;10.966;2023-02-10T18:10:32;79.60;;;41.57;;
29500;SDS011;16450;50.288;10.966;2023-02-10T18:13:37;81.67;;;43.63;;
29500;SDS011;16450;50.288;10.966;2023-02-10T18:16:39;93.80;;;48.40;;
29500;SDS011;16450;50.288;10.966;2023-02-10T18:19:41;75.57;;;42.57;;
29500;SDS011;16450;50.288;10.966;2023-02-10T18:22:43;74.90;;;41.93;;
29500;SDS011;16450;50.288;10.966;2023-02-10T18:25:47;82.43;;;43.70;;
29500;SDS011;16450;50.288;10.966;2023-02-10T18:28:50;77.17;;;43.37;;
29500;SDS011;16450;50.288;10.966;2023-02-10T18:31:52;86.30;;;46.20;;
29500;SDS011;16450;50.288;10.966;2023-02-10T18:34:54;90.57;;;49.17;;
29500;SDS011;16450;50.288;10.966;2023-02-10T18:37:56;78.93;;;44.03;;
29500;SDS011;16450;50.288;10.966;2023-02-10T18:40:58;78.87;;;43.67;;
29500;SDS011;16450;50.288;10.966;2023-02-10T18:44:00;71.60;;;38.00;;
29500;SDS011;16450;50.288;10.966;2023-02-10T18:47:02;82.83;;;43.10;;
29500;SDS011;16450;50.288;10.966;2023-02-10T18:50:04;76.93;;;40.10;;
29500;SDS011;16450;50.288;10.966;2023-02-10T18:53:07;76.10;;;41.27;;
29500;SDS011;16450;50.288;10.966;2023-02-10T18:56:12;82.97;;;44.27;;
29500;SDS011;16450;50.288;10.966;2023-02-10T18:59:15;87.00;;;44.93;;
29500;SDS011;16450;50.288;10.966;2023-02-10T19:02:19;82.30;;;44.00;;
29500;SDS011;16450;50.288;10.966;2023-02-10T19:05:21;80.93;;;43.33;;
29500;SDS011;16450;50.288;10.966;2023-02-10T19:08:22;83.03;;;43.40;;
29500;SDS011;16450;50.288;10.966;2023-02-10T19:11:24;63.50;;;36.33;;
29500;SDS011;16450;50.288;10.966;2023-02-10T19:14:26;76.73;;;42.83;;
29500;SDS011;16450;50.288;10.966;2023-02-10T19:17:28;77.73;;;42.77;;
29500;SDS011;16450;50.288;10.966;2023-02-10T19:20:30;76.83;;;41.33;;